sensor_id;sensor_type;location;lat;lon;timestamp;temperature;humidity
7159;DHT22;63175;52.374;13.132;2024-02-21T00:01:36;8.50;99.90
7159;DHT22;63175;52.374;13.132;2024-02-21T00:04:03;8.50;99.90
7159;DHT22;63175;52.374;13.132;2024-02-21T00:06:31;8.50;99.90
7159;DHT22;63175;52.374;13.132;2024-02-21T00:08:58;8.50;99.90
7159;DHT22;63175;52.374;13.132;2024-02-21T00:11:25;8.50;99.90
7159;DHT22;63175;52.374;13.132;2024-02-21T00:13:52;8.40;99.90
7159;DHT22;63175;52.374;13.132;2024-02-21T00:16:20;8.40;99.90
7159;DHT22;63175;52.374;13.132;2024-02-21T00:18:47;8.40;99.90
7159;DHT22;63175;52.374;13.132;2024-02-21T00:21:14;8.40;99.90
7159;DHT22;63175;52.374;13.132;2024-02-21T00:23:43;8.40;99.90
7159;DHT22;63175;52.374;13.132;2024-02-21T00:26:11;8.40;99.90
7159;DHT22;63175;52.374;13.132;2024-02-21T00:28:38;8.40;99.90
7159;DHT22;63175;52.374;13.132;2024-02-21T00:31:05;8.40;99.90
7159;DHT22;63175;52.374;13.132;2024-02-21T00:33:33;8.50;99.90
7159;DHT22;63175;52.374;13.132;2024-02-21T00:36:00;8.50;99.90
7159;DHT22;63175;52.374;13.132;2024-02-21T00:38:26;8.40;99.90
7159;DHT22;63175;52.374;13.132;2024-02-21T00:40:53;8.50;99.90
7159;DHT22;63175;52.374;13.132;2024-02-21T00:43:20;8.50;99.90
7159;DHT22;63175;52.374;13.132;2024-02-21T00:45:49;8.40;99.90
7159;DHT22;63175;52.374;13.132;2024-02-21T00:48:16;8.40;99.90
7159;DHT22;63175;52.374;13.132;2024-02-21T00:50:44;8.40;99.90
7159;DHT22;63175;52.374;13.132;2024-02-21T00:53:10;8.40;99.90
7159;DHT22;63175;52.374;13.132;2024-02-21T00:55:36;8.40;99.90
7159;DHT22;63175;52.374;13.132;2024-02-21T00:58:03;8.40;99.90
7159;DHT22;63175;52.374;13.132;2024-02-21T01:00:30;8.40;99.90
7159;DHT22;63175;52.374;13.132;2024-02-21T01:02:57;8.40;99.90
7159;DHT22;63175;52.374;13.132;2024-02-21T01:05:24;8.50;99.90
7159;DHT22;63175;52.374;13.132;2024-02-21T01:07:54;8.40;99.90
7159;DHT22;63175;52.374;13.132;2024-02-21T01:10:21;8.40;99.90
7159;DHT22;63175;52.374;13.132;2024-02-21T01:12:48;8.50;99.90
7159;DHT22;63175;52.374;13.132;2024-02-21T01:15:15;8.50;99.90
7159;DHT22;63175;52.374;13.132;2024-02-21T01:17:42;8.50;99.90
7159;DHT22;63175;52.374;13.132;2024-02-21T01:20:09;8.50;99.90
7159;DHT22;63175;52.374;13.132;2024-02-21T01:22:36;8.50;99.90
7159;DHT22;63175;52.374;13.132;2024-02-21T01:25:05;8.50;99.90
7159;DHT22;63175;52.374;13.132;2024-02-21T01:27:32;8.50;99.90
7159;DHT22;63175;52.374;13.132;2024-02-21T01:29:59;8.50;99.90
7159;DHT22;63175;52.374;13.132;2024-02-21T01:32:26;8.50;99.90
7159;DHT22;63175;52.374;13.132;2024-02-21T01:34:53;8.50;99.90
7159;DHT22;63175;52.374;13.132;2024-02-21T01:37:19;8.50;99.90
7159;DHT22;63175;52.374;13.132;2024-02-21T01:39:47;8.50;99.90
7159;DHT22;63175;52.374;13.132;2024-02-21T01:42:16;8.50;99.90
7159;DHT22;63175;52.374;13.132;2024-02-21T01:44:43;8.50;99.90
7159;DHT22;63175;52.374;13.132;2024-02-21T01:47:10;8.50;99.90
7159;DHT22;63175;52.374;13.132;2024-02-21T01:49:39;8.50;99.90
7159;DHT22;63175;52.374;13.132;2024-02-21T01:52:07;8.50;99.90
7159;DHT22;63175;52.374;13.132;2024-02-21T01:54:35;8.50;99.90
7159;DHT22;63175;52.374;13.132;2024-02-21T01:57:02;8.50;99.90
7159;DHT22;63175;52.374;13.132;2024-02-21T01:59:30;8.60;99.90
7159;DHT22;63175;52.374;13.132;2024-02-21T02:01:58;8.50;99.90
7159;DHT22;63175;52.374;13.132;2024-02-21T02:04:25;8.50;99.90
7159;DHT22;63175;52.374;13.132;2024-02-21T02:06:54;8.50;99.90
7159;DHT22;63175;52.374;13.132;2024-02-21T02:09:21;8.50;99.90
7159;DHT22;63175;52.374;13.132;2024-02-21T02:11:48;8.50;99.90
7159;DHT22;63175;52.374;13.132;2024-02-21T02:14:14;8.50;99.90
7159;DHT22;63175;52.374;13.132;2024-02-21T02:16:46;8.50;99.90
7159;DHT22;63175;52.374;13.132;2024-02-21T02:19:13;8.50;99.90
7159;DHT22;63175;52.374;13.132;2024-02-21T02:21:45;8.50;99.90
7159;DHT22;63175;52.374;13.132;2024-02-21T02:24:14;8.50;99.90
7159;DHT22;63175;52.374;13.132;2024-02-21T02:26:41;8.50;99.90
7159;DHT22;63175;52.374;13.132;2024-02-21T02:29:08;8.50;99.90
7159;DHT22;63175;52.374;13.132;2024-02-21T02:31:35;8.50;99.90
7159;DHT22;63175;52.374;13.132;2024-02-21T02:34:02;8.40;99.90
7159;DHT22;63175;52.374;13.132;2024-02-21T02:36:30;8.40;99.90
7159;DHT22;63175;52.374;13.132;2024-02-21T02:38:57;8.40;99.90
7159;DHT22;63175;52.374;13.132;2024-02-21T02:41:25;8.40;99.90
7159;DHT22;63175;52.374;13.132;2024-02-21T02:43:52;8.30;99.90
7159;DHT22;63175;52.374;13.132;2024-02-21T02:46:19;8.30;99.90
7159;DHT22;63175;52.374;13.132;2024-02-21T02:48:45;8.30;99.90
7159;DHT22;63175;52.374;13.132;2024-02-21T02:51:12;8.30;99.90
7159;DHT22;63175;52.374;13.132;2024-02-21T02:53:39;8.30;99.90
7159;DHT22;63175;52.374;13.132;2024-02-21T02:56:06;8.30;99.90
7159;DHT22;63175;52.374;13.132;2024-02-21T02:58:34;8.30;99.90
7159;DHT22;63175;52.374;13.132;2024-02-21T03:01:01;8.20;99.90
7159;DHT22;63175;52.374;13.132;2024-02-21T03:03:29;8.30;99.90
7159;DHT22;63175;52.374;13.132;2024-02-21T03:05:56;8.30;99.90
7159;DHT22;63175;52.374;13.132;2024-02-21T03:08:23;8.30;99.90
7159;DHT22;63175;52.374;13.132;2024-02-21T03:10:50;8.20;99.90
7159;DHT22;63175;52.374;13.132;2024-02-21T03:13:16;8.20;99.90
7159;DHT22;63175;52.374;13.132;2024-02-21T03:15:45;8.30;99.90
7159;DHT22;63175;52.374;13.132;2024-02-21T03:18:12;8.20;99.90
7159;DHT22;63175;52.374;13.132;2024-02-21T03:20:38;8.20;99.90
7159;DHT22;63175;52.374;13.132;2024-02-21T03:23:05;8.20;99.90
7159;DHT22;63175;52.374;13.132;2024-02-21T03:25:32;8.10;99.90
7159;DHT22;63175;52.374;13.132;2024-02-21T03:27:59;8.20;99.90
7159;DHT22;63175;52.374;13.132;2024-02-21T03:30:27;8.20;99.90
7159;DHT22;63175;52.374;13.132;2024-02-21T03:32:55;8.20;99.90
7159;DHT22;63175;52.374;13.132;2024-02-21T03:35:22;8.20;99.90
7159;DHT22;63175;52.374;13.132;2024-02-21T03:37:52;8.20;99.90
7159;DHT22;63175;52.374;13.132;2024-02-21T03:40:18;8.20;99.90
7159;DHT22;63175;52.374;13.132;2024-02-21T03:42:45;8.20;99.90
7159;DHT22;63175;52.374;13.132;2024-02-21T03:45:12;8.20;99.90
7159;DHT22;63175;52.374;13.132;2024-02-21T03:47:39;8.20;99.90
7159;DHT22;63175;52.374;13.132;2024-02-21T03:50:08;8.10;99.90
7159;DHT22;63175;52.374;13.132;2024-02-21T03:52:35;8.10;99.90
7159;DHT22;63175;52.374;13.132;2024-02-21T03:55:02;8.10;99.90
7159;DHT22;63175;52.374;13.132;2024-02-21T03:57:29;8.10;99.90
7159;DHT22;63175;52.374;13.132;2024-02-21T03:59:55;8.00;99.90
7159;DHT22;63175;52.374;13.132;2024-02-21T04:02:22;8.00;99.90
7159;DHT22;63175;52.374;13.132;2024-02-21T04:04:49;8.00;99.90
7159;DHT22;63175;52.374;13.132;2024-02-21T04:07:17;8.00;99.90
7159;DHT22;63175;52.374;13.132;2024-02-21T04:09:44;8.00;99.90
7159;DHT22;63175;52.374;13.132;2024-02-21T04:12:11;8.00;99.90
7159;DHT22;63175;52.374;13.132;2024-02-21T04:14:38;7.90;99.90
7159;DHT22;63175;52.374;13.132;2024-02-21T04:17:05;7.90;99.90
7159;DHT22;63175;52.374;13.132;2024-02-21T04:19:32;7.90;99.90
7159;DHT22;63175;52.374;13.132;2024-02-21T04:22:00;7.90;99.90
7159;DHT22;63175;52.374;13.132;2024-02-21T04:24:28;7.80;99.90
7159;DHT22;63175;52.374;13.132;2024-02-21T04:26:55;7.80;99.90
7159;DHT22;63175;52.374;13.132;2024-02-21T04:29:21;7.80;99.90
7159;DHT22;63175;52.374;13.132;2024-02-21T04:31:49;7.80;99.90
7159;DHT22;63175;52.374;13.132;2024-02-21T04:34:15;7.80;99.90
7159;DHT22;63175;52.374;13.132;2024-02-21T04:36:42;7.80;99.90
7159;DHT22;63175;52.374;13.132;2024-02-21T04:39:09;7.80;99.90
7159;DHT22;63175;52.374;13.132;2024-02-21T04:41:38;7.80;99.90
7159;DHT22;63175;52.374;13.132;2024-02-21T04:44:05;7.80;99.90
7159;DHT22;63175;52.374;13.132;2024-02-21T04:46:32;7.80;99.90
7159;DHT22;63175;52.374;13.132;2024-02-21T04:48:58;7.80;99.90
7159;DHT22;63175;52.374;13.132;2024-02-21T04:51:25;7.80;99.90
7159;DHT22;63175;52.374;13.132;2024-02-21T04:53:52;7.70;99.90
7159;DHT22;63175;52.374;13.132;2024-02-21T04:56:19;7.70;99.90
7159;DHT22;63175;52.374;13.132;2024-02-21T04:58:47;7.70;99.90
7159;DHT22;63175;52.374;13.132;2024-02-21T05:01:14;7.70;99.90
7159;DHT22;63175;52.374;13.132;2024-02-21T05:03:41;7.70;99.90
7159;DHT22;63175;52.374;13.132;2024-02-21T05:06:08;7.70;99.90
7159;DHT22;63175;52.374;13.132;2024-02-21T05:08:35;7.70;99.90
7159;DHT22;63175;52.374;13.132;2024-02-21T05:11:02;7.70;99.90
7159;DHT22;63175;52.374;13.132;2024-02-21T05:13:29;7.70;99.90
7159;DHT22;63175;52.374;13.132;2024-02-21T05:15:57;7.70;99.90
7159;DHT22;63175;52.374;13.132;2024-02-21T05:18:26;7.70;99.90
7159;DHT22;63175;52.374;13.132;2024-02-21T05:20:53;7.80;99.90
7159;DHT22;63175;52.374;13.132;2024-02-21T05:23:20;7.70;99.90
7159;DHT22;63175;52.374;13.132;2024-02-21T05:25:47;7.80;99.90
7159;DHT22;63175;52.374;13.132;2024-02-21T05:28:14;7.70;99.90
7159;DHT22;63175;52.374;13.132;2024-02-21T05:30:41;7.80;99.90
7159;DHT22;63175;52.374;13.132;2024-02-21T05:33:10;7.80;99.90
7159;DHT22;63175;52.374;13.132;2024-02-21T05:35:37;7.80;99.90
7159;DHT22;63175;52.374;13.132;2024-02-21T05:38:03;7.80;99.90
7159;DHT22;63175;52.374;13.132;2024-02-21T05:40:36;7.80;99.90
7159;DHT22;63175;52.374;13.132;2024-02-21T05:43:03;7.80;99.90
7159;DHT22;63175;52.374;13.132;2024-02-21T05:45:30;7.90;99.90
7159;DHT22;63175;52.374;13.132;2024-02-21T05:47:57;7.90;99.90
7159;DHT22;63175;52.374;13.132;2024-02-21T05:50:25;7.90;99.90
7159;DHT22;63175;52.374;13.132;2024-02-21T05:52:54;7.90;99.90
7159;DHT22;63175;52.374;13.132;2024-02-21T05:55:21;7.90;99.90
7159;DHT22;63175;52.374;13.132;2024-02-21T05:57:48;7.90;99.90
7159;DHT22;63175;52.374;13.132;2024-02-21T06:00:15;7.90;99.90
7159;DHT22;63175;52.374;13.132;2024-02-21T06:02:42;7.90;99.90
7159;DHT22;63175;52.374;13.132;2024-02-21T06:05:09;7.90;99.90
7159;DHT22;63175;52.374;13.132;2024-02-21T06:07:38;7.90;99.90
7159;DHT22;63175;52.374;13.132;2024-02-21T06:10:07;7.90;99.90
7159;DHT22;63175;52.374;13.132;2024-02-21T06:12:34;7.90;99.90
7159;DHT22;63175;52.374;13.132;2024-02-21T06:15:01;7.90;99.90
7159;DHT22;63175;52.374;13.132;2024-02-21T06:17:28;7.90;99.90
7159;DHT22;63175;52.374;13.132;2024-02-21T06:19:55;7.90;99.90
7159;DHT22;63175;52.374;13.132;2024-02-21T06:22:22;7.90;99.90
7159;DHT22;63175;52.374;13.132;2024-02-21T06:24:50;7.90;99.90
7159;DHT22;63175;52.374;13.132;2024-02-21T06:27:17;7.90;99.90
7159;DHT22;63175;52.374;13.132;2024-02-21T06:29:44;8.00;99.90
7159;DHT22;63175;52.374;13.132;2024-02-21T06:32:11;8.00;99.90
7159;DHT22;63175;52.374;13.132;2024-02-21T06:34:38;8.00;99.90
7159;DHT22;63175;52.374;13.132;2024-02-21T06:37:04;8.00;99.90
7159;DHT22;63175;52.374;13.132;2024-02-21T06:39:31;8.00;99.90
7159;DHT22;63175;52.374;13.132;2024-02-21T06:41:59;8.00;99.90
7159;DHT22;63175;52.374;13.132;2024-02-21T06:44:26;8.00;99.90
7159;DHT22;63175;52.374;13.132;2024-02-21T06:46:54;8.00;99.90
7159;DHT22;63175;52.374;13.132;2024-02-21T06:49:21;8.00;99.90
7159;DHT22;63175;52.374;13.132;2024-02-21T06:51:47;8.00;99.90
7159;DHT22;63175;52.374;13.132;2024-02-21T06:54:14;8.00;99.90
7159;DHT22;63175;52.374;13.132;2024-02-21T06:56:41;8.00;99.90
7159;DHT22;63175;52.374;13.132;2024-02-21T06:59:09;8.00;99.90
7159;DHT22;63175;52.374;13.132;2024-02-21T07:01:36;8.00;99.90
7159;DHT22;63175;52.374;13.132;2024-02-21T07:04:04;8.00;99.90
7159;DHT22;63175;52.374;13.132;2024-02-21T07:06:30;8.00;99.90
7159;DHT22;63175;52.374;13.132;2024-02-21T07:08:57;8.00;99.90
7159;DHT22;63175;52.374;13.132;2024-02-21T07:11:24;8.00;99.90
7159;DHT22;63175;52.374;13.132;2024-02-21T07:13:51;8.10;99.90
7159;DHT22;63175;52.374;13.132;2024-02-21T07:16:20;8.00;99.90
7159;DHT22;63175;52.374;13.132;2024-02-21T07:18:46;8.10;99.90
7159;DHT22;63175;52.374;13.132;2024-02-21T07:21:13;8.10;99.90
7159;DHT22;63175;52.374;13.132;2024-02-21T07:23:41;7.90;99.90
7159;DHT22;63175;52.374;13.132;2024-02-21T07:26:08;8.00;99.90
7159;DHT22;63175;52.374;13.132;2024-02-21T07:28:35;8.10;99.90
7159;DHT22;63175;52.374;13.132;2024-02-21T07:31:02;8.10;99.90
7159;DHT22;63175;52.374;13.132;2024-02-21T07:33:30;8.10;99.90
7159;DHT22;63175;52.374;13.132;2024-02-21T07:35:58;8.10;99.90
7159;DHT22;63175;52.374;13.132;2024-02-21T07:38:25;8.10;99.90
7159;DHT22;63175;52.374;13.132;2024-02-21T07:40:51;8.10;99.90
7159;DHT22;63175;52.374;13.132;2024-02-21T07:43:18;8.10;99.90
7159;DHT22;63175;52.374;13.132;2024-02-21T07:45:47;8.10;99.90
7159;DHT22;63175;52.374;13.132;2024-02-21T07:48:14;8.10;99.90
7159;DHT22;63175;52.374;13.132;2024-02-21T07:50:42;8.10;99.90
7159;DHT22;63175;52.374;13.132;2024-02-21T07:53:09;8.20;99.90
7159;DHT22;63175;52.374;13.132;2024-02-21T07:55:36;8.20;99.90
7159;DHT22;63175;52.374;13.132;2024-02-21T07:58:03;8.20;99.90
7159;DHT22;63175;52.374;13.132;2024-02-21T08:00:30;8.20;99.90
7159;DHT22;63175;52.374;13.132;2024-02-21T08:02:57;8.20;99.90
7159;DHT22;63175;52.374;13.132;2024-02-21T08:05:23;8.20;99.90
7159;DHT22;63175;52.374;13.132;2024-02-21T08:07:52;8.30;99.90
7159;DHT22;63175;52.374;13.132;2024-02-21T08:10:19;8.30;99.90
7159;DHT22;63175;52.374;13.132;2024-02-21T08:12:45;8.30;99.90
7159;DHT22;63175;52.374;13.132;2024-02-21T08:15:12;8.30;99.90
7159;DHT22;63175;52.374;13.132;2024-02-21T08:17:39;8.40;99.90
7159;DHT22;63175;52.374;13.132;2024-02-21T08:20:07;8.40;99.90
7159;DHT22;63175;52.374;13.132;2024-02-21T08:22:34;8.40;99.90
7159;DHT22;63175;52.374;13.132;2024-02-21T08:25:05;8.40;99.90
7159;DHT22;63175;52.374;13.132;2024-02-21T08:27:32;8.50;99.90
7159;DHT22;63175;52.374;13.132;2024-02-21T08:30:00;8.50;99.90
7159;DHT22;63175;52.374;13.132;2024-02-21T08:32:26;8.50;99.90
7159;DHT22;63175;52.374;13.132;2024-02-21T08:34:55;8.60;99.90
7159;DHT22;63175;52.374;13.132;2024-02-21T08:37:22;8.60;99.90
7159;DHT22;63175;52.374;13.132;2024-02-21T08:39:49;8.70;99.90
7159;DHT22;63175;52.374;13.132;2024-02-21T08:42:17;8.70;99.90
7159;DHT22;63175;52.374;13.132;2024-02-21T08:44:44;8.80;99.90
7159;DHT22;63175;52.374;13.132;2024-02-21T08:47:11;8.90;99.90
7159;DHT22;63175;52.374;13.132;2024-02-21T08:49:38;9.20;99.90
7159;DHT22;63175;52.374;13.132;2024-02-21T08:52:05;9.50;99.90
7159;DHT22;63175;52.374;13.132;2024-02-21T08:54:32;9.70;99.90
7159;DHT22;63175;52.374;13.132;2024-02-21T08:56:59;10.00;99.90
7159;DHT22;63175;52.374;13.132;2024-02-21T08:59:27;10.20;99.90
7159;DHT22;63175;52.374;13.132;2024-02-21T09:01:54;10.20;99.90
7159;DHT22;63175;52.374;13.132;2024-02-21T09:04:21;10.10;99.90
7159;DHT22;63175;52.374;13.132;2024-02-21T09:06:48;10.00;99.90
7159;DHT22;63175;52.374;13.132;2024-02-21T09:09:15;9.90;99.90
7159;DHT22;63175;52.374;13.132;2024-02-21T09:11:42;9.80;99.90
7159;DHT22;63175;52.374;13.132;2024-02-21T09:14:09;9.70;99.90
7159;DHT22;63175;52.374;13.132;2024-02-21T09:16:37;9.80;99.90
7159;DHT22;63175;52.374;13.132;2024-02-21T09:19:05;9.80;99.90
7159;DHT22;63175;52.374;13.132;2024-02-21T09:21:32;9.80;99.90
7159;DHT22;63175;52.374;13.132;2024-02-21T09:23:59;9.80;99.90
7159;DHT22;63175;52.374;13.132;2024-02-21T09:26:26;9.80;99.90
7159;DHT22;63175;52.374;13.132;2024-02-21T09:28:53;9.80;99.90
7159;DHT22;63175;52.374;13.132;2024-02-21T09:31:20;9.90;99.90
7159;DHT22;63175;52.374;13.132;2024-02-21T09:33:48;10.00;99.90
7159;DHT22;63175;52.374;13.132;2024-02-21T09:36:15;10.10;99.90
7159;DHT22;63175;52.374;13.132;2024-02-21T09:38:42;10.10;99.90
7159;DHT22;63175;52.374;13.132;2024-02-21T09:41:15;10.00;99.90
7159;DHT22;63175;52.374;13.132;2024-02-21T09:43:43;10.00;99.90
7159;DHT22;63175;52.374;13.132;2024-02-21T09:46:15;10.00;99.90
7159;DHT22;63175;52.374;13.132;2024-02-21T09:48:52;10.10;99.90
7159;DHT22;63175;52.374;13.132;2024-02-21T09:51:25;10.10;99.90
7159;DHT22;63175;52.374;13.132;2024-02-21T09:53:53;10.10;99.90
7159;DHT22;63175;52.374;13.132;2024-02-21T09:56:20;10.10;99.90
7159;DHT22;63175;52.374;13.132;2024-02-21T09:58:47;10.20;99.90
7159;DHT22;63175;52.374;13.132;2024-02-21T10:01:14;10.20;99.90
7159;DHT22;63175;52.374;13.132;2024-02-21T10:03:42;10.30;99.90
7159;DHT22;63175;52.374;13.132;2024-02-21T10:06:11;10.30;99.90
7159;DHT22;63175;52.374;13.132;2024-02-21T10:08:37;10.30;99.90
7159;DHT22;63175;52.374;13.132;2024-02-21T10:11:04;10.30;99.90
7159;DHT22;63175;52.374;13.132;2024-02-21T10:13:31;10.20;99.90
7159;DHT22;63175;52.374;13.132;2024-02-21T10:16:02;10.20;99.90
7159;DHT22;63175;52.374;13.132;2024-02-21T10:18:28;10.20;99.90
7159;DHT22;63175;52.374;13.132;2024-02-21T10:21:03;10.20;99.90
7159;DHT22;63175;52.374;13.132;2024-02-21T10:23:45;10.10;99.90
7159;DHT22;63175;52.374;13.132;2024-02-21T10:26:12;10.10;99.90
7159;DHT22;63175;52.374;13.132;2024-02-21T10:28:39;10.20;99.90
7159;DHT22;63175;52.374;13.132;2024-02-21T10:31:09;10.20;99.90
7159;DHT22;63175;52.374;13.132;2024-02-21T10:33:36;10.20;99.90
7159;DHT22;63175;52.374;13.132;2024-02-21T10:36:07;10.20;99.90
7159;DHT22;63175;52.374;13.132;2024-02-21T10:38:36;10.30;99.90
7159;DHT22;63175;52.374;13.132;2024-02-21T10:41:05;10.30;99.90
7159;DHT22;63175;52.374;13.132;2024-02-21T10:43:38;10.40;99.90
7159;DHT22;63175;52.374;13.132;2024-02-21T10:46:06;10.40;99.90
7159;DHT22;63175;52.374;13.132;2024-02-21T10:48:41;10.40;99.90
7159;DHT22;63175;52.374;13.132;2024-02-21T10:51:15;10.40;99.90
7159;DHT22;63175;52.374;13.132;2024-02-21T10:53:45;10.40;99.90
7159;DHT22;63175;52.374;13.132;2024-02-21T10:56:26;10.40;99.90
7159;DHT22;63175;52.374;13.132;2024-02-21T10:58:53;10.50;99.90
7159;DHT22;63175;52.374;13.132;2024-02-21T11:01:21;10.50;99.90
7159;DHT22;63175;52.374;13.132;2024-02-21T11:03:49;10.50;99.90
7159;DHT22;63175;52.374;13.132;2024-02-21T11:06:18;10.60;99.90
7159;DHT22;63175;52.374;13.132;2024-02-21T11:08:47;10.60;99.90
7159;DHT22;63175;52.374;13.132;2024-02-21T11:11:16;10.60;99.90
7159;DHT22;63175;52.374;13.132;2024-02-21T11:13:46;10.80;99.90
7159;DHT22;63175;52.374;13.132;2024-02-21T11:16:22;11.00;99.90
7159;DHT22;63175;52.374;13.132;2024-02-21T11:18:49;11.10;99.90
7159;DHT22;63175;52.374;13.132;2024-02-21T11:21:16;11.20;99.90
7159;DHT22;63175;52.374;13.132;2024-02-21T11:23:43;11.20;99.90
7159;DHT22;63175;52.374;13.132;2024-02-21T11:26:10;11.30;99.90
7159;DHT22;63175;52.374;13.132;2024-02-21T11:28:56;11.30;99.90
7159;DHT22;63175;52.374;13.132;2024-02-21T11:31:23;11.50;99.90
7159;DHT22;63175;52.374;13.132;2024-02-21T11:33:51;11.60;99.90
7159;DHT22;63175;52.374;13.132;2024-02-21T11:36:24;11.90;99.90
7159;DHT22;63175;52.374;13.132;2024-02-21T11:38:51;12.30;99.90
7159;DHT22;63175;52.374;13.132;2024-02-21T11:41:18;12.50;99.90
7159;DHT22;63175;52.374;13.132;2024-02-21T11:43:48;12.90;99.90
7159;DHT22;63175;52.374;13.132;2024-02-21T11:46:16;13.20;99.90
7159;DHT22;63175;52.374;13.132;2024-02-21T11:48:43;13.70;99.90
7159;DHT22;63175;52.374;13.132;2024-02-21T11:51:21;14.20;99.90
7159;DHT22;63175;52.374;13.132;2024-02-21T11:53:50;14.90;99.90
7159;DHT22;63175;52.374;13.132;2024-02-21T11:56:17;15.00;99.90
7159;DHT22;63175;52.374;13.132;2024-02-21T11:58:47;15.00;99.90
7159;DHT22;63175;52.374;13.132;2024-02-21T12:01:14;14.70;99.90
7159;DHT22;63175;52.374;13.132;2024-02-21T12:03:42;14.50;99.90
7159;DHT22;63175;52.374;13.132;2024-02-21T12:06:15;14.20;99.90
7159;DHT22;63175;52.374;13.132;2024-02-21T12:08:45;13.90;99.90
7159;DHT22;63175;52.374;13.132;2024-02-21T12:11:19;13.70;99.90
7159;DHT22;63175;52.374;13.132;2024-02-21T12:13:58;13.50;99.90
7159;DHT22;63175;52.374;13.132;2024-02-21T12:16:27;13.50;99.90
7159;DHT22;63175;52.374;13.132;2024-02-21T12:18:55;13.60;99.90
7159;DHT22;63175;52.374;13.132;2024-02-21T12:21:24;13.60;99.90
7159;DHT22;63175;52.374;13.132;2024-02-21T12:23:51;13.60;99.90
7159;DHT22;63175;52.374;13.132;2024-02-21T12:26:18;13.50;99.90
7159;DHT22;63175;52.374;13.132;2024-02-21T12:28:45;13.30;99.90
7159;DHT22;63175;52.374;13.132;2024-02-21T12:31:13;13.20;99.90
7159;DHT22;63175;52.374;13.132;2024-02-21T12:33:41;13.10;99.90
7159;DHT22;63175;52.374;13.132;2024-02-21T12:36:08;13.00;99.90
7159;DHT22;63175;52.374;13.132;2024-02-21T12:38:35;12.90;99.90
7159;DHT22;63175;52.374;13.132;2024-02-21T12:41:02;12.90;99.90
7159;DHT22;63175;52.374;13.132;2024-02-21T12:43:29;12.80;99.90
7159;DHT22;63175;52.374;13.132;2024-02-21T12:45:56;12.90;99.90
7159;DHT22;63175;52.374;13.132;2024-02-21T12:48:25;12.90;99.90
7159;DHT22;63175;52.374;13.132;2024-02-21T12:50:51;12.80;99.90
7159;DHT22;63175;52.374;13.132;2024-02-21T12:53:19;12.80;99.90
7159;DHT22;63175;52.374;13.132;2024-02-21T12:55:46;12.80;99.90
7159;DHT22;63175;52.374;13.132;2024-02-21T12:58:14;12.80;99.90
7159;DHT22;63175;52.374;13.132;2024-02-21T13:00:41;12.80;99.90
7159;DHT22;63175;52.374;13.132;2024-02-21T13:03:08;12.80;99.90
7159;DHT22;63175;52.374;13.132;2024-02-21T13:05:37;12.80;99.90
7159;DHT22;63175;52.374;13.132;2024-02-21T13:08:05;12.80;99.90
7159;DHT22;63175;52.374;13.132;2024-02-21T13:10:32;12.90;99.90
7159;DHT22;63175;52.374;13.132;2024-02-21T13:13:00;13.00;99.90
7159;DHT22;63175;52.374;13.132;2024-02-21T13:15:26;13.00;99.90
7159;DHT22;63175;52.374;13.132;2024-02-21T13:17:55;13.00;99.90
7159;DHT22;63175;52.374;13.132;2024-02-21T13:20:22;13.00;99.90
7159;DHT22;63175;52.374;13.132;2024-02-21T13:22:50;13.00;99.90
7159;DHT22;63175;52.374;13.132;2024-02-21T13:25:17;13.00;99.90
7159;DHT22;63175;52.374;13.132;2024-02-21T13:27:46;13.00;99.90
7159;DHT22;63175;52.374;13.132;2024-02-21T13:30:13;12.90;99.90
7159;DHT22;63175;52.374;13.132;2024-02-21T13:32:42;12.90;99.90
7159;DHT22;63175;52.374;13.132;2024-02-21T13:35:11;12.90;99.90
7159;DHT22;63175;52.374;13.132;2024-02-21T13:37:38;12.90;99.90
7159;DHT22;63175;52.374;13.132;2024-02-21T13:40:08;12.80;99.90
7159;DHT22;63175;52.374;13.132;2024-02-21T13:42:35;12.90;99.90
7159;DHT22;63175;52.374;13.132;2024-02-21T13:45:03;12.80;99.90
7159;DHT22;63175;52.374;13.132;2024-02-21T13:47:30;12.80;99.90
7159;DHT22;63175;52.374;13.132;2024-02-21T13:49:57;12.70;99.90
7159;DHT22;63175;52.374;13.132;2024-02-21T13:52:24;12.70;99.90
7159;DHT22;63175;52.374;13.132;2024-02-21T13:54:52;12.60;99.90
7159;DHT22;63175;52.374;13.132;2024-02-21T13:57:20;12.70;99.90
7159;DHT22;63175;52.374;13.132;2024-02-21T13:59:46;12.70;99.90
7159;DHT22;63175;52.374;13.132;2024-02-21T14:02:13;12.60;99.90
7159;DHT22;63175;52.374;13.132;2024-02-21T14:04:40;12.60;99.90
7159;DHT22;63175;52.374;13.132;2024-02-21T14:07:07;12.60;99.90
7159;DHT22;63175;52.374;13.132;2024-02-21T14:09:34;12.50;99.90
7159;DHT22;63175;52.374;13.132;2024-02-21T14:12:01;12.50;99.90
7159;DHT22;63175;52.374;13.132;2024-02-21T14:14:30;12.50;99.90
7159;DHT22;63175;52.374;13.132;2024-02-21T14:16:57;12.40;99.90
7159;DHT22;63175;52.374;13.132;2024-02-21T14:19:23;12.30;99.90
7159;DHT22;63175;52.374;13.132;2024-02-21T14:21:50;12.30;99.90
7159;DHT22;63175;52.374;13.132;2024-02-21T14:24:18;12.30;99.90
7159;DHT22;63175;52.374;13.132;2024-02-21T14:26:45;12.30;99.90
7159;DHT22;63175;52.374;13.132;2024-02-21T14:29:14;12.30;99.90
7159;DHT22;63175;52.374;13.132;2024-02-21T14:31:42;12.30;99.90
7159;DHT22;63175;52.374;13.132;2024-02-21T14:34:09;12.20;99.90
7159;DHT22;63175;52.374;13.132;2024-02-21T14:36:36;12.20;99.90
7159;DHT22;63175;52.374;13.132;2024-02-21T14:39:03;12.20;99.90
7159;DHT22;63175;52.374;13.132;2024-02-21T14:41:30;12.20;99.90
7159;DHT22;63175;52.374;13.132;2024-02-21T14:43:57;12.10;99.90
7159;DHT22;63175;52.374;13.132;2024-02-21T14:46:25;12.10;99.90
7159;DHT22;63175;52.374;13.132;2024-02-21T14:48:55;12.00;99.90
7159;DHT22;63175;52.374;13.132;2024-02-21T14:51:22;12.00;99.90
7159;DHT22;63175;52.374;13.132;2024-02-21T14:53:49;12.00;99.90
7159;DHT22;63175;52.374;13.132;2024-02-21T14:56:16;12.00;99.90
7159;DHT22;63175;52.374;13.132;2024-02-21T14:58:43;12.00;99.90
7159;DHT22;63175;52.374;13.132;2024-02-21T15:01:10;12.00;99.90
7159;DHT22;63175;52.374;13.132;2024-02-21T15:03:38;11.90;99.90
7159;DHT22;63175;52.374;13.132;2024-02-21T15:06:07;12.00;99.90
7159;DHT22;63175;52.374;13.132;2024-02-21T15:08:33;11.90;99.90
7159;DHT22;63175;52.374;13.132;2024-02-21T15:11:01;12.00;99.90
7159;DHT22;63175;52.374;13.132;2024-02-21T15:13:28;11.90;99.90
7159;DHT22;63175;52.374;13.132;2024-02-21T15:15:56;11.90;99.90
7159;DHT22;63175;52.374;13.132;2024-02-21T15:18:22;11.90;99.90
7159;DHT22;63175;52.374;13.132;2024-02-21T15:20:49;11.90;99.90
7159;DHT22;63175;52.374;13.132;2024-02-21T15:23:18;11.90;99.90
7159;DHT22;63175;52.374;13.132;2024-02-21T15:25:46;11.90;99.90
7159;DHT22;63175;52.374;13.132;2024-02-21T15:28:13;11.80;99.90
7159;DHT22;63175;52.374;13.132;2024-02-21T15:30:40;11.80;99.90
7159;DHT22;63175;52.374;13.132;2024-02-21T15:33:07;11.70;99.90
7159;DHT22;63175;52.374;13.132;2024-02-21T15:35:34;11.70;99.90
7159;DHT22;63175;52.374;13.132;2024-02-21T15:38:01;11.60;99.90
7159;DHT22;63175;52.374;13.132;2024-02-21T15:40:29;11.50;99.90
7159;DHT22;63175;52.374;13.132;2024-02-21T15:43:01;11.40;99.90